sensor_id;sensor_type;location;lat;lon;timestamp;P1;durP1;ratioP1;P2;durP2;ratioP2
16963;SDS011;8598;50.508;10.436;2023-04-24T00:00:49;5.10;;;3.70;;
16963;SDS011;8598;50.508;10.436;2023-04-24T00:03:15;4.50;;;3.73;;
16963;SDS011;8598;50.508;10.436;2023-04-24T00:05:45;3.87;;;3.47;;
16963;SDS011;8598;50.508;10.436;2023-04-24T00:08:12;6.07;;;4.27;;
16963;SDS011;8598;50.508;10.436;2023-04-24T00:10:39;6.07;;;4.57;;
16963;SDS011;8598;50.508;10.436;2023-04-24T00:13:05;5.43;;;4.80;;
16963;SDS011;8598;50.508;10.436;2023-04-24T00:15:32;6.60;;;5.17;;
16963;SDS011;8598;50.508;10.436;2023-04-24T00:18:00;5.70;;;5.10;;
16963;SDS011;8598;50.508;10.436;2023-04-24T00:20:27;7.23;;;5.73;;
16963;SDS011;8598;50.508;10.436;2023-04-24T00:22:54;6.13;;;5.30;;
16963;SDS011;8598;50.508;10.436;2023-04-24T00:25:21;7.03;;;6.07;;
16963;SDS011;8598;50.508;10.436;2023-04-24T00:27:48;7.87;;;5.37;;
16963;SDS011;8598;50.508;10.436;2023-04-24T00:30:15;7.20;;;5.87;;
16963;SDS011;8598;50.508;10.436;2023-04-24T00:32:42;6.77;;;5.50;;
16963;SDS011;8598;50.508;10.436;2023-04-24T00:35:10;6.80;;;5.43;;
16963;SDS011;8598;50.508;10.436;2023-04-24T00:37:36;6.37;;;5.27;;
16963;SDS011;8598;50.508;10.436;2023-04-24T00:40:03;7.03;;;4.87;;
16963;SDS011;8598;50.508;10.436;2023-04-24T00:42:31;6.17;;;4.73;;
16963;SDS011;8598;50.508;10.436;2023-04-24T00:44:58;4.37;;;3.97;;
16963;SDS011;8598;50.508;10.436;2023-04-24T00:47:27;5.87;;;4.27;;
16963;SDS011;8598;50.508;10.436;2023-04-24T00:49:55;4.07;;;3.67;;
16963;SDS011;8598;50.508;10.436;2023-04-24T00:52:22;5.00;;;3.60;;
16963;SDS011;8598;50.508;10.436;2023-04-24T00:54:50;4.30;;;3.00;;
16963;SDS011;8598;50.508;10.436;2023-04-24T00:57:16;3.33;;;3.03;;
16963;SDS011;8598;50.508;10.436;2023-04-24T00:59:43;5.50;;;3.67;;
16963;SDS011;8598;50.508;10.436;2023-04-24T01:02:10;4.67;;;3.20;;
16963;SDS011;8598;50.508;10.436;2023-04-24T01:04:37;4.07;;;3.20;;
16963;SDS011;8598;50.508;10.436;2023-04-24T01:07:05;5.13;;;3.20;;
16963;SDS011;8598;50.508;10.436;2023-04-24T01:09:36;4.23;;;3.37;;
16963;SDS011;8598;50.508;10.436;2023-04-24T01:12:05;4.53;;;3.13;;
16963;SDS011;8598;50.508;10.436;2023-04-24T01:14:32;3.57;;;2.93;;
16963;SDS011;8598;50.508;10.436;2023-04-24T01:16:59;4.83;;;3.23;;
16963;SDS011;8598;50.508;10.436;2023-04-24T01:19:26;5.80;;;3.10;;
16963;SDS011;8598;50.508;10.436;2023-04-24T01:21:53;4.03;;;3.23;;
16963;SDS011;8598;50.508;10.436;2023-04-24T01:24:24;3.20;;;2.90;;
16963;SDS011;8598;50.508;10.436;2023-04-24T01:26:51;3.57;;;3.17;;
16963;SDS011;8598;50.508;10.436;2023-04-24T01:29:18;4.27;;;2.90;;
16963;SDS011;8598;50.508;10.436;2023-04-24T01:31:44;4.87;;;3.07;;
16963;SDS011;8598;50.508;10.436;2023-04-24T01:34:11;7.10;;;4.20;;
16963;SDS011;8598;50.508;10.436;2023-04-24T01:36:38;6.67;;;4.10;;
16963;SDS011;8598;50.508;10.436;2023-04-24T01:39:05;5.60;;;3.80;;
16963;SDS011;8598;50.508;10.436;2023-04-24T01:41:33;4.50;;;3.87;;
16963;SDS011;8598;50.508;10.436;2023-04-24T01:44:00;5.40;;;3.90;;
16963;SDS011;8598;50.508;10.436;2023-04-24T01:46:27;4.40;;;3.87;;
16963;SDS011;8598;50.508;10.436;2023-04-24T01:48:55;7.03;;;4.50;;
16963;SDS011;8598;50.508;10.436;2023-04-24T01:51:22;5.10;;;4.60;;
16963;SDS011;8598;50.508;10.436;2023-04-24T01:53:49;5.20;;;4.60;;
16963;SDS011;8598;50.508;10.436;2023-04-24T01:56:16;7.50;;;4.43;;
16963;SDS011;8598;50.508;10.436;2023-04-24T01:58:44;5.50;;;4.40;;
16963;SDS011;8598;50.508;10.436;2023-04-24T02:01:14;6.17;;;4.67;;
16963;SDS011;8598;50.508;10.436;2023-04-24T02:03:43;6.53;;;4.90;;
16963;SDS011;8598;50.508;10.436;2023-04-24T02:06:10;7.97;;;4.90;;
16963;SDS011;8598;50.508;10.436;2023-04-24T02:08:36;5.77;;;4.33;;
16963;SDS011;8598;50.508;10.436;2023-04-24T02:11:03;5.67;;;4.60;;
16963;SDS011;8598;50.508;10.436;2023-04-24T02:13:30;5.73;;;4.67;;
16963;SDS011;8598;50.508;10.436;2023-04-24T02:15:59;8.27;;;5.70;;
16963;SDS011;8598;50.508;10.436;2023-04-24T02:18:25;6.63;;;5.33;;
16963;SDS011;8598;50.508;10.436;2023-04-24T02:20:52;5.53;;;4.93;;
16963;SDS011;8598;50.508;10.436;2023-04-24T02:23:18;5.20;;;4.70;;
16963;SDS011;8598;50.508;10.436;2023-04-24T02:25:45;5.80;;;4.57;;
16963;SDS011;8598;50.508;10.436;2023-04-24T02:28:12;6.73;;;4.37;;
16963;SDS011;8598;50.508;10.436;2023-04-24T02:30:38;14.63;;;4.93;;
16963;SDS011;8598;50.508;10.436;2023-04-24T02:33:06;6.67;;;4.77;;
16963;SDS011;8598;50.508;10.436;2023-04-24T02:35:33;6.67;;;4.13;;
16963;SDS011;8598;50.508;10.436;2023-04-24T02:38:00;4.77;;;4.27;;
16963;SDS011;8598;50.508;10.436;2023-04-24T02:40:26;5.43;;;3.87;;
16963;SDS011;8598;50.508;10.436;2023-04-24T02:42:53;8.20;;;4.50;;
16963;SDS011;8598;50.508;10.436;2023-04-24T02:45:20;7.27;;;3.90;;
16963;SDS011;8598;50.508;10.436;2023-04-24T02:47:46;3.70;;;3.23;;
16963;SDS011;8598;50.508;10.436;2023-04-24T02:50:14;6.50;;;3.40;;
16963;SDS011;8598;50.508;10.436;2023-04-24T02:52:41;4.40;;;3.60;;
16963;SDS011;8598;50.508;10.436;2023-04-24T02:55:08;7.73;;;4.33;;
16963;SDS011;8598;50.508;10.436;2023-04-24T02:57:34;4.30;;;3.90;;
16963;SDS011;8598;50.508;10.436;2023-04-24T03:00:01;4.67;;;3.47;;
16963;SDS011;8598;50.508;10.436;2023-04-24T03:02:28;5.30;;;3.50;;
16963;SDS011;8598;50.508;10.436;2023-04-24T03:04:55;4.47;;;3.70;;
16963;SDS011;8598;50.508;10.436;2023-04-24T03:07:23;5.63;;;4.13;;
16963;SDS011;8598;50.508;10.436;2023-04-24T03:09:50;6.07;;;4.00;;
16963;SDS011;8598;50.508;10.436;2023-04-24T03:12:16;5.93;;;4.00;;
16963;SDS011;8598;50.508;10.436;2023-04-24T03:14:43;6.03;;;4.13;;
16963;SDS011;8598;50.508;10.436;2023-04-24T03:17:10;4.90;;;3.80;;
16963;SDS011;8598;50.508;10.436;2023-04-24T03:19:36;4.87;;;3.90;;
16963;SDS011;8598;50.508;10.436;2023-04-24T03:22:03;6.33;;;3.83;;
16963;SDS011;8598;50.508;10.436;2023-04-24T03:24:31;4.60;;;3.60;;
16963;SDS011;8598;50.508;10.436;2023-04-24T03:26:58;4.70;;;3.23;;
16963;SDS011;8598;50.508;10.436;2023-04-24T03:29:25;6.33;;;3.33;;
16963;SDS011;8598;50.508;10.436;2023-04-24T03:31:51;3.73;;;3.40;;
16963;SDS011;8598;50.508;10.436;2023-04-24T03:34:18;4.80;;;3.17;;
16963;SDS011;8598;50.508;10.436;2023-04-24T03:36:45;3.47;;;2.73;;
16963;SDS011;8598;50.508;10.436;2023-04-24T03:39:13;7.80;;;2.70;;
16963;SDS011;8598;50.508;10.436;2023-04-24T03:41:41;3.83;;;2.73;;
16963;SDS011;8598;50.508;10.436;2023-04-24T03:44:08;3.07;;;2.83;;
16963;SDS011;8598;50.508;10.436;2023-04-24T03:46:35;3.10;;;2.77;;
16963;SDS011;8598;50.508;10.436;2023-04-24T03:49:02;5.27;;;2.50;;
16963;SDS011;8598;50.508;10.436;2023-04-24T03:51:28;4.00;;;2.87;;
16963;SDS011;8598;50.508;10.436;2023-04-24T03:53:57;2.40;;;2.20;;
16963;SDS011;8598;50.508;10.436;2023-04-24T03:56:23;2.77;;;2.33;;
16963;SDS011;8598;50.508;10.436;2023-04-24T03:58:51;3.10;;;2.30;;
16963;SDS011;8598;50.508;10.436;2023-04-24T04:01:18;2.27;;;2.07;;
16963;SDS011;8598;50.508;10.436;2023-04-24T04:03:45;2.27;;;2.07;;
16963;SDS011;8598;50.508;10.436;2023-04-24T04:06:12;3.10;;;2.43;;
16963;SDS011;8598;50.508;10.436;2023-04-24T04:08:39;3.93;;;2.50;;
16963;SDS011;8598;50.508;10.436;2023-04-24T04:11:05;5.20;;;2.40;;
16963;SDS011;8598;50.508;10.436;2023-04-24T04:13:32;2.60;;;2.27;;
16963;SDS011;8598;50.508;10.436;2023-04-24T04:16:00;3.23;;;2.40;;
16963;SDS011;8598;50.508;10.436;2023-04-24T04:18:26;3.13;;;2.53;;
16963;SDS011;8598;50.508;10.436;2023-04-24T04:20:53;3.17;;;2.10;;
16963;SDS011;8598;50.508;10.436;2023-04-24T04:23:21;2.33;;;2.13;;
16963;SDS011;8598;50.508;10.436;2023-04-24T04:25:48;2.40;;;2.20;;
16963;SDS011;8598;50.508;10.436;2023-04-24T04:28:15;5.20;;;2.13;;
16963;SDS011;8598;50.508;10.436;2023-04-24T04:30:44;2.63;;;2.10;;
16963;SDS011;8598;50.508;10.436;2023-04-24T04:33:13;3.10;;;2.80;;
16963;SDS011;8598;50.508;10.436;2023-04-24T04:35:40;4.37;;;2.10;;
16963;SDS011;8598;50.508;10.436;2023-04-24T04:38:07;1.90;;;1.80;;
16963;SDS011;8598;50.508;10.436;2023-04-24T04:40:35;5.33;;;2.30;;
16963;SDS011;8598;50.508;10.436;2023-04-24T04:43:02;2.43;;;1.90;;
16963;SDS011;8598;50.508;10.436;2023-04-24T04:45:29;3.83;;;2.07;;
16963;SDS011;8598;50.508;10.436;2023-04-24T04:47:55;3.57;;;2.00;;
16963;SDS011;8598;50.508;10.436;2023-04-24T04:50:23;5.67;;;2.23;;
16963;SDS011;8598;50.508;10.436;2023-04-24T04:52:50;2.50;;;2.30;;
16963;SDS011;8598;50.508;10.436;2023-04-24T04:55:16;3.53;;;2.37;;
16963;SDS011;8598;50.508;10.436;2023-04-24T04:57:44;2.77;;;1.93;;
16963;SDS011;8598;50.508;10.436;2023-04-24T05:00:11;3.13;;;2.60;;
16963;SDS011;8598;50.508;10.436;2023-04-24T05:02:38;2.63;;;2.40;;
16963;SDS011;8598;50.508;10.436;2023-04-24T05:05:06;4.93;;;1.83;;
16963;SDS011;8598;50.508;10.436;2023-04-24T05:07:35;4.63;;;2.20;;
16963;SDS011;8598;50.508;10.436;2023-04-24T05:10:01;2.10;;;1.90;;
16963;SDS011;8598;50.508;10.436;2023-04-24T05:12:29;3.97;;;1.80;;
16963;SDS011;8598;50.508;10.436;2023-04-24T05:14:55;2.97;;;1.80;;
16963;SDS011;8598;50.508;10.436;2023-04-24T05:17:22;4.97;;;2.23;;
16963;SDS011;8598;50.508;10.436;2023-04-24T05:19:48;3.90;;;2.00;;
16963;SDS011;8598;50.508;10.436;2023-04-24T05:22:16;3.07;;;2.50;;
16963;SDS011;8598;50.508;10.436;2023-04-24T05:24:45;5.30;;;2.20;;
16963;SDS011;8598;50.508;10.436;2023-04-24T05:27:11;3.53;;;2.00;;
16963;SDS011;8598;50.508;10.436;2023-04-24T05:29:38;2.63;;;2.17;;
16963;SDS011;8598;50.508;10.436;2023-04-24T05:32:05;4.13;;;2.40;;
16963;SDS011;8598;50.508;10.436;2023-04-24T05:34:32;3.17;;;2.37;;
16963;SDS011;8598;50.508;10.436;2023-04-24T05:36:58;7.90;;;2.80;;
16963;SDS011;8598;50.508;10.436;2023-04-24T05:39:25;5.93;;;2.70;;
16963;SDS011;8598;50.508;10.436;2023-04-24T05:41:53;4.20;;;2.63;;
16963;SDS011;8598;50.508;10.436;2023-04-24T05:44:22;1.93;;;1.83;;
16963;SDS011;8598;50.508;10.436;2023-04-24T05:46:49;2.47;;;1.80;;
16963;SDS011;8598;50.508;10.436;2023-04-24T05:49:16;3.43;;;2.27;;
16963;SDS011;8598;50.508;10.436;2023-04-24T05:51:42;4.13;;;1.90;;
16963;SDS011;8598;50.508;10.436;2023-04-24T05:54:09;4.00;;;2.17;;
16963;SDS011;8598;50.508;10.436;2023-04-24T05:56:37;4.00;;;2.60;;
16963;SDS011;8598;50.508;10.436;2023-04-24T05:59:05;3.40;;;2.80;;
16963;SDS011;8598;50.508;10.436;2023-04-24T06:01:32;4.60;;;2.67;;
16963;SDS011;8598;50.508;10.436;2023-04-24T06:03:59;4.20;;;3.10;;
16963;SDS011;8598;50.508;10.436;2023-04-24T06:06:25;7.97;;;4.00;;
16963;SDS011;8598;50.508;10.436;2023-04-24T06:08:53;3.73;;;2.47;;
16963;SDS011;8598;50.508;10.436;2023-04-24T06:11:20;6.90;;;2.60;;
16963;SDS011;8598;50.508;10.436;2023-04-24T06:13:47;3.27;;;2.10;;
16963;SDS011;8598;50.508;10.436;2023-04-24T06:16:15;3.87;;;2.13;;
16963;SDS011;8598;50.508;10.436;2023-04-24T06:18:42;3.40;;;2.70;;
16963;SDS011;8598;50.508;10.436;2023-04-24T06:21:10;3.10;;;1.97;;
16963;SDS011;8598;50.508;10.436;2023-04-24T06:23:36;1.77;;;1.67;;
16963;SDS011;8598;50.508;10.436;2023-04-24T06:26:03;1.80;;;1.70;;
16963;SDS011;8598;50.508;10.436;2023-04-24T06:28:30;5.30;;;1.77;;
16963;SDS011;8598;50.508;10.436;2023-04-24T06:30:56;3.13;;;1.50;;
16963;SDS011;8598;50.508;10.436;2023-04-24T06:33:24;2.40;;;1.80;;
16963;SDS011;8598;50.508;10.436;2023-04-24T06:35:51;2.37;;;1.73;;
16963;SDS011;8598;50.508;10.436;2023-04-24T06:38:17;5.27;;;2.40;;
16963;SDS011;8598;50.508;10.436;2023-04-24T06:40:44;1.87;;;1.67;;
16963;SDS011;8598;50.508;10.436;2023-04-24T06:43:11;4.50;;;1.97;;
16963;SDS011;8598;50.508;10.436;2023-04-24T06:45:38;2.70;;;1.80;;
16963;SDS011;8598;50.508;10.436;2023-04-24T06:48:05;1.60;;;1.50;;
16963;SDS011;8598;50.508;10.436;2023-04-24T06:50:32;2.00;;;1.80;;
16963;SDS011;8598;50.508;10.436;2023-04-24T06:52:59;2.43;;;1.63;;
16963;SDS011;8598;50.508;10.436;2023-04-24T06:55:26;1.70;;;1.60;;
16963;SDS011;8598;50.508;10.436;2023-04-24T06:57:52;1.83;;;1.67;;
16963;SDS011;8598;50.508;10.436;2023-04-24T07:00:19;1.40;;;1.30;;
16963;SDS011;8598;50.508;10.436;2023-04-24T07:02:46;2.70;;;1.40;;
16963;SDS011;8598;50.508;10.436;2023-04-24T07:05:12;2.43;;;1.50;;
16963;SDS011;8598;50.508;10.436;2023-04-24T07:07:41;1.87;;;1.43;;
16963;SDS011;8598;50.508;10.436;2023-04-24T07:10:09;2.60;;;1.60;;
16963;SDS011;8598;50.508;10.436;2023-04-24T07:12:35;1.47;;;1.30;;
16963;SDS011;8598;50.508;10.436;2023-04-24T07:15:02;3.83;;;1.70;;
16963;SDS011;8598;50.508;10.436;2023-04-24T07:17:30;1.50;;;1.40;;
16963;SDS011;8598;50.508;10.436;2023-04-24T07:19:56;3.17;;;2.03;;
16963;SDS011;8598;50.508;10.436;2023-04-24T07:22:23;1.60;;;1.50;;
16963;SDS011;8598;50.508;10.436;2023-04-24T07:24:51;1.33;;;1.20;;
16963;SDS011;8598;50.508;10.436;2023-04-24T07:27:18;3.20;;;1.10;;
16963;SDS011;8598;50.508;10.436;2023-04-24T07:29:44;3.20;;;1.00;;
16963;SDS011;8598;50.508;10.436;2023-04-24T07:32:11;0.93;;;0.90;;
16963;SDS011;8598;50.508;10.436;2023-04-24T07:34:37;1.07;;;0.90;;
16963;SDS011;8598;50.508;10.436;2023-04-24T07:37:04;3.27;;;1.00;;
16963;SDS011;8598;50.508;10.436;2023-04-24T07:39:31;1.53;;;1.03;;
16963;SDS011;8598;50.508;10.436;2023-04-24T07:41:59;1.23;;;0.83;;
16963;SDS011;8598;50.508;10.436;2023-04-24T07:44:26;2.13;;;0.90;;
16963;SDS011;8598;50.508;10.436;2023-04-24T07:46:53;1.67;;;0.90;;
16963;SDS011;8598;50.508;10.436;2023-04-24T07:49:19;1.13;;;1.13;;
16963;SDS011;8598;50.508;10.436;2023-04-24T07:51:46;1.50;;;1.40;;
16963;SDS011;8598;50.508;10.436;2023-04-24T07:54:13;1.50;;;1.40;;
16963;SDS011;8598;50.508;10.436;2023-04-24T07:56:40;2.80;;;1.63;;
16963;SDS011;8598;50.508;10.436;2023-04-24T07:59:09;1.80;;;1.70;;
16963;SDS011;8598;50.508;10.436;2023-04-24T08:01:36;1.77;;;1.67;;
16963;SDS011;8598;50.508;10.436;2023-04-24T08:04:03;2.20;;;2.10;;
16963;SDS011;8598;50.508;10.436;2023-04-24T08:06:29;3.60;;;2.30;;
16963;SDS011;8598;50.508;10.436;2023-04-24T08:08:56;2.40;;;2.20;;
16963;SDS011;8598;50.508;10.436;2023-04-24T08:11:24;3.17;;;2.07;;
16963;SDS011;8598;50.508;10.436;2023-04-24T08:13:51;2.80;;;1.87;;
16963;SDS011;8598;50.508;10.436;2023-04-24T08:16:19;1.87;;;1.67;;
16963;SDS011;8598;50.508;10.436;2023-04-24T08:18:45;1.87;;;1.77;;
16963;SDS011;8598;50.508;10.436;2023-04-24T08:21:12;1.87;;;1.67;;
16963;SDS011;8598;50.508;10.436;2023-04-24T08:23:42;2.97;;;2.07;;
16963;SDS011;8598;50.508;10.436;2023-04-24T08:26:08;2.17;;;1.97;;
16963;SDS011;8598;50.508;10.436;2023-04-24T08:28:36;2.40;;;2.20;;
16963;SDS011;8598;50.508;10.436;2023-04-24T08:31:02;1.73;;;1.40;;
16963;SDS011;8598;50.508;10.436;2023-04-24T08:33:31;1.77;;;1.40;;
16963;SDS011;8598;50.508;10.436;2023-04-24T08:35:59;3.13;;;1.40;;
16963;SDS011;8598;50.508;10.436;2023-04-24T08:38:26;1.40;;;1.30;;
16963;SDS011;8598;50.508;10.436;2023-04-24T08:40:52;1.30;;;0.90;;
16963;SDS011;8598;50.508;10.436;2023-04-24T08:43:20;3.87;;;0.90;;
16963;SDS011;8598;50.508;10.436;2023-04-24T08:45:47;2.00;;;1.37;;
16963;SDS011;8598;50.508;10.436;2023-04-24T08:48:14;2.43;;;1.20;;
16963;SDS011;8598;50.508;10.436;2023-04-24T08:50:43;0.87;;;0.83;;
16963;SDS011;8598;50.508;10.436;2023-04-24T08:53:10;1.10;;;1.00;;
16963;SDS011;8598;50.508;10.436;2023-04-24T08:55:37;4.83;;;1.60;;
16963;SDS011;8598;50.508;10.436;2023-04-24T08:58:04;2.87;;;1.70;;
16963;SDS011;8598;50.508;10.436;2023-04-24T09:00:31;3.93;;;1.70;;
16963;SDS011;8598;50.508;10.436;2023-04-24T09:02:59;7.23;;;1.60;;
16963;SDS011;8598;50.508;10.436;2023-04-24T09:05:27;2.53;;;1.80;;
16963;SDS011;8598;50.508;10.436;2023-04-24T09:07:56;1.90;;;1.80;;
16963;SDS011;8598;50.508;10.436;2023-04-24T09:10:24;2.17;;;2.07;;
16963;SDS011;8598;50.508;10.436;2023-04-24T09:12:52;3.03;;;2.83;;
16963;SDS011;8598;50.508;10.436;2023-04-24T09:15:20;2.17;;;2.00;;
16963;SDS011;8598;50.508;10.436;2023-04-24T09:17:46;2.53;;;2.33;;
16963;SDS011;8598;50.508;10.436;2023-04-24T09:20:13;2.67;;;2.47;;
16963;SDS011;8598;50.508;10.436;2023-04-24T09:22:40;2.70;;;2.37;;
16963;SDS011;8598;50.508;10.436;2023-04-24T09:25:09;1.90;;;1.80;;
16963;SDS011;8598;50.508;10.436;2023-04-24T09:27:38;1.50;;;1.40;;
16963;SDS011;8598;50.508;10.436;2023-04-24T09:30:08;2.50;;;2.40;;
16963;SDS011;8598;50.508;10.436;2023-04-24T09:32:36;3.40;;;1.50;;
16963;SDS011;8598;50.508;10.436;2023-04-24T09:35:06;1.47;;;1.20;;
16963;SDS011;8598;50.508;10.436;2023-04-24T09:37:35;1.87;;;1.50;;
16963;SDS011;8598;50.508;10.436;2023-04-24T09:40:14;1.77;;;1.67;;
16963;SDS011;8598;50.508;10.436;2023-04-24T09:42:45;1.77;;;1.63;;
16963;SDS011;8598;50.508;10.436;2023-04-24T09:45:12;2.67;;;1.93;;
16963;SDS011;8598;50.508;10.436;2023-04-24T09:47:40;2.63;;;2.00;;
16963;SDS011;8598;50.508;10.436;2023-04-24T09:50:14;2.03;;;1.93;;
16963;SDS011;8598;50.508;10.436;2023-04-24T09:52:43;2.53;;;2.43;;
16963;SDS011;8598;50.508;10.436;2023-04-24T09:55:11;2.07;;;1.70;;
16963;SDS011;8598;50.508;10.436;2023-04-24T09:57:54;1.70;;;1.47;;
16963;SDS011;8598;50.508;10.436;2023-04-24T10:00:22;2.10;;;2.00;;
16963;SDS011;8598;50.508;10.436;2023-04-24T10:02:50;1.73;;;1.63;;
16963;SDS011;8598;50.508;10.436;2023-04-24T10:05:22;4.23;;;1.60;;
16963;SDS011;8598;50.508;10.436;2023-04-24T10:07:49;1.83;;;1.73;;
16963;SDS011;8598;50.508;10.436;2023-04-24T10:10:18;1.90;;;1.80;;
16963;SDS011;8598;50.508;10.436;2023-04-24T10:12:45;1.87;;;1.77;;
16963;SDS011;8598;50.508;10.436;2023-04-24T10:15:12;1.50;;;1.40;;
16963;SDS011;8598;50.508;10.436;2023-04-24T10:17:42;1.60;;;1.50;;
16963;SDS011;8598;50.508;10.436;2023-04-24T10:20:17;1.77;;;1.60;;
16963;SDS011;8598;50.508;10.436;2023-04-24T10:22:44;1.77;;;1.43;;
16963;SDS011;8598;50.508;10.436;2023-04-24T10:25:14;1.73;;;1.63;;
16963;SDS011;8598;50.508;10.436;2023-04-24T10:27:44;1.70;;;1.60;;
16963;SDS011;8598;50.508;10.436;2023-04-24T10:30:12;6.87;;;1.80;;
16963;SDS011;8598;50.508;10.436;2023-04-24T10:32:40;3.83;;;1.83;;
16963;SDS011;8598;50.508;10.436;2023-04-24T10:35:06;2.17;;;2.07;;
16963;SDS011;8598;50.508;10.436;2023-04-24T10:37:34;2.50;;;1.83;;
16963;SDS011;8598;50.508;10.436;2023-04-24T10:40:04;1.93;;;1.83;;
16963;SDS011;8598;50.508;10.436;2023-04-24T10:42:34;2.17;;;2.03;;
16963;SDS011;8598;50.508;10.436;2023-04-24T10:45:04;1.70;;;1.60;;
16963;SDS011;8598;50.508;10.436;2023-04-24T10:47:38;1.60;;;1.50;;
16963;SDS011;8598;50.508;10.436;2023-04-24T10:50:07;2.73;;;2.33;;
16963;SDS011;8598;50.508;10.436;2023-04-24T10:52:44;4.57;;;2.07;;
16963;SDS011;8598;50.508;10.436;2023-04-24T10:55:12;7.37;;;4.57;;
16963;SDS011;8598;50.508;10.436;2023-04-24T10:57:41;6.67;;;5.60;;
16963;SDS011;8598;50.508;10.436;2023-04-24T11:00:28;11.13;;;7.93;;
16963;SDS011;8598;50.508;10.436;2023-04-24T11:02:55;6.60;;;3.47;;
16963;SDS011;8598;50.508;10.436;2023-04-24T11:05:22;2.00;;;1.80;;
16963;SDS011;8598;50.508;10.436;2023-04-24T11:08:23;2.57;;;2.13;;
16963;SDS011;8598;50.508;10.436;2023-04-24T11:11:06;3.43;;;2.23;;
16963;SDS011;8598;50.508;10.436;2023-04-24T11:16:35;3.47;;;1.90;;
16963;SDS011;8598;50.508;10.436;2023-04-24T11:19:06;3.03;;;1.80;;
16963;SDS011;8598;50.508;10.436;2023-04-24T11:21:39;1.83;;;1.73;;
16963;SDS011;8598;50.508;10.436;2023-04-24T11:24:23;3.30;;;2.80;;
16963;SDS011;8598;50.508;10.436;2023-04-24T11:26:58;2.23;;;1.90;;
16963;SDS011;8598;50.508;10.436;2023-04-24T11:29:41;1.97;;;1.77;;
16963;SDS011;8598;50.508;10.436;2023-04-24T11:32:19;2.20;;;2.10;;
16963;SDS011;8598;50.508;10.436;2023-04-24T11:34:51;2.17;;;1.87;;
16963;SDS011;8598;50.508;10.436;2023-04-24T11:37:18;2.27;;;2.07;;
16963;SDS011;8598;50.508;10.436;2023-04-24T11:39:45;2.93;;;2.13;;
16963;SDS011;8598;50.508;10.436;2023-04-24T11:42:13;1.87;;;1.67;;
16963;SDS011;8598;50.508;10.436;2023-04-24T11:44:42;2.20;;;1.73;;
16963;SDS011;8598;50.508;10.436;2023-04-24T11:47:09;7.33;;;1.40;;
16963;SDS011;8598;50.508;10.436;2023-04-24T11:49:36;2.50;;;2.17;;
16963;SDS011;8598;50.508;10.436;2023-04-24T11:52:03;3.87;;;1.90;;
16963;SDS011;8598;50.508;10.436;2023-04-24T11:54:30;2.40;;;2.10;;
16963;SDS011;8598;50.508;10.436;2023-04-24T11:56:57;2.53;;;2.33;;
16963;SDS011;8598;50.508;10.436;2023-04-24T11:59:24;3.53;;;2.27;;
16963;SDS011;8598;50.508;10.436;2023-04-24T12:01:52;2.23;;;2.03;;
16963;SDS011;8598;50.508;10.436;2023-04-24T12:04:19;2.67;;;2.47;;
16963;SDS011;8598;50.508;10.436;2023-04-24T12:07:01;2.50;;;2.00;;
16963;SDS011;8598;50.508;10.436;2023-04-24T12:09:28;4.40;;;2.17;;
16963;SDS011;8598;50.508;10.436;2023-04-24T12:12:06;2.00;;;1.77;;
16963;SDS011;8598;50.508;10.436;2023-04-24T12:14:32;2.77;;;2.57;;
16963;SDS011;8598;50.508;10.436;2023-04-24T12:17:08;3.00;;;1.70;;
16963;SDS011;8598;50.508;10.436;2023-04-24T12:19:35;2.90;;;2.17;;
16963;SDS011;8598;50.508;10.436;2023-04-24T12:22:03;2.30;;;2.10;;
16963;SDS011;8598;50.508;10.436;2023-04-24T12:24:31;2.97;;;1.90;;
16963;SDS011;8598;50.508;10.436;2023-04-24T12:26:58;2.03;;;1.83;;
16963;SDS011;8598;50.508;10.436;2023-04-24T12:29:26;1.90;;;1.80;;
16963;SDS011;8598;50.508;10.436;2023-04-24T12:31:53;1.57;;;1.47;;
16963;SDS011;8598;50.508;10.436;2023-04-24T12:34:22;5.20;;;1.80;;
16963;SDS011;8598;50.508;10.436;2023-04-24T12:36:50;1.97;;;1.77;;
16963;SDS011;8598;50.508;10.436;2023-04-24T12:39:17;1.70;;;1.50;;
16963;SDS011;8598;50.508;10.436;2023-04-24T12:41:53;2.13;;;1.30;;
16963;SDS011;8598;50.508;10.436;2023-04-24T12:44:28;2.40;;;2.30;;
16963;SDS011;8598;50.508;10.436;2023-04-24T12:46:56;1.80;;;1.67;;
16963;SDS011;8598;50.508;10.436;2023-04-24T12:49:24;2.13;;;1.90;;
16963;SDS011;8598;50.508;10.436;2023-04-24T12:51:50;2.20;;;2.00;;
16963;SDS011;8598;50.508;10.436;2023-04-24T12:54:17;2.70;;;2.50;;
16963;SDS011;8598;50.508;10.436;2023-04-24T12:56:44;2.20;;;2.10;;
16963;SDS011;8598;50.508;10.436;2023-04-24T12:59:11;1.87;;;1.77;;
16963;SDS011;8598;50.508;10.436;2023-04-24T13:01:37;1.57;;;1.47;;
16963;SDS011;8598;50.508;10.436;2023-04-24T13:04:04;1.70;;;1.60;;
16963;SDS011;8598;50.508;10.436;2023-04-24T13:06:32;1.10;;;1.10;;
16963;SDS011;8598;50.508;10.436;2023-04-24T13:08:59;1.27;;;1.23;;
16963;SDS011;8598;50.508;10.436;2023-04-24T13:11:25;1.57;;;1.47;;
16963;SDS011;8598;50.508;10.436;2023-04-24T13:13:52;1.57;;;1.20;;
16963;SDS011;8598;50.508;10.436;2023-04-24T13:16:19;2.00;;;1.80;;
16963;SDS011;8598;50.508;10.436;2023-04-24T13:18:45;1.30;;;1.20;;
16963;SDS011;8598;50.508;10.436;2023-04-24T13:21:12;1.67;;;1.57;;
16963;SDS011;8598;50.508;10.436;2023-04-24T13:23:40;1.40;;;1.30;;
16963;SDS011;8598;50.508;10.436;2023-04-24T13:26:07;1.40;;;1.30;;
16963;SDS011;8598;50.508;10.436;2023-04-24T13:28:34;1.27;;;1.17;;
16963;SDS011;8598;50.508;10.436;2023-04-24T13:31:00;1.23;;;1.13;;
16963;SDS011;8598;50.508;10.436;2023-04-24T13:33:27;5.60;;;4.03;;
16963;SDS011;8598;50.508;10.436;2023-04-24T13:35:53;2.07;;;1.30;;
16963;SDS011;8598;50.508;10.436;2023-04-24T13:38:20;0.80;;;0.80;;
16963;SDS011;8598;50.508;10.436;2023-04-24T13:40:48;1.33;;;1.23;;
16963;SDS011;8598;50.508;10.436;2023-04-24T13:43:15;0.80;;;0.80;;
16963;SDS011;8598;50.508;10.436;2023-04-24T13:45:42;1.10;;;1.10;;
16963;SDS011;8598;50.508;10.436;2023-04-24T13:48:09;1.03;;;1.03;;
16963;SDS011;8598;50.508;10.436;2023-04-24T13:50:36;1.37;;;1.37;;
16963;SDS011;8598;50.508;10.436;2023-04-24T13:53:03;1.53;;;1.47;;
16963;SDS011;8598;50.508;10.436;2023-04-24T13:55:29;1.33;;;1.23;;
16963;SDS011;8598;50.508;10.436;2023-04-24T13:57:57;1.07;;;1.00;;
16963;SDS011;8598;50.508;10.436;2023-04-24T14:00:24;3.37;;;1.10;;
16963;SDS011;8598;50.508;10.436;2023-04-24T14:02:51;1.07;;;1.07;;
16963;SDS011;8598;50.508;10.436;2023-04-24T14:05:18;1.10;;;1.00;;
16963;SDS011;8598;50.508;10.436;2023-04-24T14:07:46;1.07;;;1.07;;
16963;SDS011;8598;50.508;10.436;2023-04-24T14:10:13;2.37;;;1.10;;
16963;SDS011;8598;50.508;10.436;2023-04-24T14:12:40;1.43;;;1.43;;
16963;SDS011;8598;50.508;10.436;2023-04-24T14:15:08;0.93;;;0.93;;
16963;SDS011;8598;50.508;10.436;2023-04-24T14:17:38;1.73;;;1.37;;
16963;SDS011;8598;50.508;10.436;2023-04-24T14:20:05;1.97;;;1.87;;
16963;SDS011;8598;50.508;10.436;2023-04-24T14:22:34;1.40;;;1.00;;
16963;SDS011;8598;50.508;10.436;2023-04-24T14:25:00;1.90;;;1.67;;
16963;SDS011;8598;50.508;10.436;2023-04-24T14:27:27;1.80;;;1.70;;
16963;SDS011;8598;50.508;10.436;2023-04-24T14:29:54;0.87;;;0.87;;
16963;SDS011;8598;50.508;10.436;2023-04-24T14:32:22;1.50;;;1.40;;
16963;SDS011;8598;50.508;10.436;2023-04-24T14:34:49;0.97;;;0.73;;
16963;SDS011;8598;50.508;10.436;2023-04-24T14:37:16;0.73;;;0.73;;
16963;SDS011;8598;50.508;10.436;2023-04-24T14:39:42;1.10;;;0.90;;
16963;SDS011;8598;50.508;10.436;2023-04-24T14:42:09;0.80;;;0.80;;
16963;SDS011;8598;50.508;10.436;2023-04-24T14:44:36;0.77;;;0.77;;
16963;SDS011;8598;50.508;10.436;2023-04-24T14:47:02;0.87;;;0.87;;
16963;SDS011;8598;50.508;10.436;2023-04-24T14:49:30;1.17;;;1.07;;
16963;SDS011;8598;50.508;10.436;2023-04-24T14:51:57;1.10;;;1.10;;
16963;SDS011;8598;50.508;10.436;2023-04-24T14:54:24;1.00;;;0.90;;